Meteorología y climatología de Navarra
Datos de la estación - Meteo Navarra

Estación de Sartaguda GN

Altitud 310 m.


Datos desde el 09/11/2018 hasta el 10/11/2018 en horario solar
Los datos son PROVISIONALES

Anterior Página 1 de 1 Siguiente Descargar: Formato para Excel 2000 o superior   Formato csv   Formato para OpenOffice Calc
Fecha Temperatura Humedad relativa Radiación global Insolación Precipitación Velocidad viento 10 m Velocidad viento 10 m Dirección viento 10 m
ºC % W/m² s l/m² m/s km/h º
09/11/2018 0:00 9.1 90 0.0 0 0.0 1.7 6.0 22
09/11/2018 0:10 9.1 89 0.0 0 0.0 1.1 4.0 326
09/11/2018 0:20 9.1 89 0.0 0 0.0 1.5 5.4 353
09/11/2018 0:30 9.1 90 0.0 0 0.0 1.1 4.0 25
09/11/2018 0:40 8.9 90 0.0 0 0.0 0.4 1.6 0
09/11/2018 0:50 8.7 90 0.0 0 0.0 0.4 1.3 124
09/11/2018 1:00 8.2 92 0.0 0 0.0 1.2 4.4 179
09/11/2018 1:10 7.8 94 0.0 0 0.0 1.7 6.0 177
09/11/2018 1:20 8.0 92 0.0 0 0.0 0.7 2.6 197
09/11/2018 1:30 7.9 90 0.0 0 0.0 0.8 3.0 262
09/11/2018 1:40 7.8 91 0.0 0 0.0 1.2 4.3 294
09/11/2018 1:50 7.9 90 0.0 0 0.0 0.7 2.7 256
09/11/2018 2:00 7.8 90 0.0 0 0.0 0.4 1.3 347
09/11/2018 2:10 7.7 89 0.0 0 0.0 1.2 4.4 14
09/11/2018 2:20 7.8 89 0.0 0 0.0 1.2 4.2 14
09/11/2018 2:30 7.7 89 0.0 0 0.0 0.7 2.6 49
09/11/2018 2:40 7.6 90 0.0 0 0.0 0.4 1.5 214
09/11/2018 2:50 7.5 90 0.0 0 0.0 0.9 3.2 200
09/11/2018 3:00 7.7 87 0.0 0 0.0 0.6 2.3 283
09/11/2018 3:10 8.1 83 0.0 0 0.0 2.2 8.0 297
09/11/2018 3:20 8.6 79 0.0 0 0.0 3.4 12.3 284
09/11/2018 3:30 8.7 79 0.0 0 0.0 2.9 10.6 313
09/11/2018 3:40 8.5 80 0.0 0 0.0 3.0 10.8 312
09/11/2018 3:50 8.6 80 0.0 0 0.0 3.3 12.0 329
09/11/2018 4:00 8.7 79 0.0 0 0.0 3.3 12.0 330
09/11/2018 4:10 8.7 79 0.0 0 0.0 3.3 11.8 335
09/11/2018 4:20 8.5 81 0.0 0 0.0 2.5 8.9 328
09/11/2018 4:30 8.3 81 0.0 0 0.0 2.6 9.3 332
09/11/2018 4:40 8.1 82 0.0 0 0.0 2.4 8.6 323
09/11/2018 4:50 8.1 82 0.0 0 0.0 2.4 8.6 300
09/11/2018 5:00 8.0 82 0.0 0 0.0 1.6 5.8 294
09/11/2018 5:10 7.8 82 0.0 0 0.0 1.3 4.8 312
09/11/2018 5:20 7.7 82 0.0 0 0.0 2.4 8.5 301
09/11/2018 5:30 7.7 81 0.0 0 0.0 2.8 10.2 305
09/11/2018 5:40 7.6 82 0.0 0 0.0 2.5 9.1 299
09/11/2018 5:50 7.6 81 0.0 0 0.0 2.9 10.6 296
09/11/2018 6:00 7.6 81 0.0 0 0.0 3.1 11.0 295
09/11/2018 6:10 7.7 80 0.0 0 0.0 2.9 10.3 287
09/11/2018 6:20 7.7 80 0.0 0 0.0 3.1 11.2 287
09/11/2018 6:30 7.7 80 0.0 0 0.0 3.1 11.2 282
09/11/2018 6:40 7.8 80 0.0 0 0.0 3.0 10.9 284
09/11/2018 6:50 7.8 79 0.0 0 0.0 2.9 10.5 287
09/11/2018 7:00 7.8 79 0.0 0 0.0 2.7 9.7 295
09/11/2018 7:10 7.8 79 9.9 0 0.0 2.8 10.0 297
09/11/2018 7:20 7.8 79 21.4 0 0.0 2.7 9.6 293
09/11/2018 7:30 7.6 80 45.1 280 0.0 2.9 10.4 294
09/11/2018 7:40 7.6 80 87.5 600 0.0 2.5 9.0 322
09/11/2018 7:50 7.7 81 113.9 600 0.0 2.0 7.1 304
09/11/2018 8:00 8.0 80 150.1 600 0.0 0.9 3.4 309
09/11/2018 8:10 8.7 78 179.6 556 0.0 2.4 8.6 299
09/11/2018 8:20 9.1 77 121.3 422 0.0 2.6 9.3 302
09/11/2018 8:30 9.1 77 118.1 0 0.0 3.1 11.0 304
09/11/2018 8:40 9.1 76 139.5 272 0.0 3.0 10.9 308
09/11/2018 8:50 9.4 76 157.3 562 0.0 3.7 13.4 284
09/11/2018 9:00 9.5 76 175.4 600 0.0 3.2 11.7 287
09/11/2018 9:10 9.8 75 183.0 442 0.0 2.9 10.3 283
09/11/2018 9:20 10.2 72 186.1 268 0.0 2.9 10.5 302
09/11/2018 9:30 10.4 71 180.3 0 0.0 4.1 14.9 284
09/11/2018 9:40 10.2 71 217.0 278 0.0 3.9 14.1 296
09/11/2018 9:50 10.5 73 218.4 410 0.0 3.2 11.5 315
09/11/2018 10:00 10.7 74 248.2 558 0.0 3.3 12.0 321
09/11/2018 10:10 10.7 72 278.0 600 0.0 4.3 15.3 307
09/11/2018 10:20 10.9 71 285.4 590 0.0 4.0 14.2 304
09/11/2018 10:30 11.4 71 404.9 600 0.0 3.9 14.0 317
09/11/2018 10:40 11.6 69 508.1 600 0.0 3.6 13.0 321
09/11/2018 10:50 11.9 68 501.9 600 0.0 3.9 14.2 323
09/11/2018 11:00 12.3 67 511.9 600 0.0 2.8 10.2 315
09/11/2018 11:10 12.6 62 523.4 600 0.0 3.6 13.1 310
09/11/2018 11:20 12.9 61 529.7 600 0.0 3.7 13.3 315
09/11/2018 11:30 12.9 60 534.6 600 0.0 4.1 14.6 312
09/11/2018 11:40 13.1 60 537.3 600 0.0 4.3 15.5 317
09/11/2018 11:50 13.2 59 539.5 600 0.0 4.7 17.0 317
09/11/2018 12:00 13.2 58 539.3 600 0.0 4.6 16.5 319
09/11/2018 12:10 13.4 59 538.1 600 0.0 4.6 16.7 326
09/11/2018 12:20 13.3 59 555.7 600 0.0 4.2 15.1 330
09/11/2018 12:30 13.4 59 328.9 260 0.0 4.4 15.9 323
09/11/2018 12:40 13.1 61 443.1 484 0.0 3.9 14.0 318
09/11/2018 12:50 13.3 60 531.5 600 0.0 4.3 15.4 320
09/11/2018 13:00 13.4 60 317.9 350 0.0 4.0 14.4 322
09/11/2018 13:10 13.3 59 335.3 400 0.0 3.9 14.1 325
09/11/2018 13:20 13.3 59 332.6 528 0.0 4.0 14.5 323
09/11/2018 13:30 13.6 58 465.4 600 0.0 3.1 11.0 310
09/11/2018 13:40 14.0 56 452.4 600 0.0 4.3 15.6 319
09/11/2018 13:50 14.0 55 443.7 600 0.0 4.2 14.9 312
09/11/2018 14:00 14.1 55 412.0 600 0.0 3.9 14.0 308
09/11/2018 14:10 14.2 55 395.6 566 0.0 3.9 14.1 317
09/11/2018 14:20 14.2 54 394.4 600 0.0 4.4 15.9 322
09/11/2018 14:30 14.2 53 362.0 600 0.0 3.3 12.0 313
09/11/2018 14:40 14.1 54 336.5 600 0.0 4.0 14.2 313
09/11/2018 14:50 14.1 54 313.3 600 0.0 3.7 13.4 316
09/11/2018 15:00 14.1 53 288.7 600 0.0 2.6 9.4 308
09/11/2018 15:10 14.2 53 263.4 600 0.0 2.9 10.4 318
09/11/2018 15:20 14.2 53 228.4 600 0.0 2.5 9.1 327
09/11/2018 15:30 14.2 53 219.3 600 0.0 2.9 10.5 318
09/11/2018 15:40 14.2 54 152.7 476 0.0 2.9 10.5 318
09/11/2018 15:50 14.1 53 120.0 350 0.0 3.5 12.7 310
09/11/2018 16:00 13.8 51 134.4 600 0.0 3.8 13.7 323
09/11/2018 16:10 13.7 52 96.3 600 0.0 3.7 13.2 326
09/11/2018 16:20 13.4 53 42.0 250 0.0 2.5 9.0 309
09/11/2018 16:30 13.0 54 18.6 0 0.0 2.6 9.3 313
09/11/2018 16:40 12.7 55 1.5 0 0.0 2.6 9.4 317
09/11/2018 16:50 12.4 56 0.0 0 0.0 2.7 9.7 312
09/11/2018 17:00 12.1 59 0.0 0 0.0 1.8 6.3 297
09/11/2018 17:10 11.9 60 0.0 0 0.0 1.8 6.6 290
09/11/2018 17:20 11.9 58 0.0 0 0.0 1.5 5.3 302
09/11/2018 17:30 11.9 60 0.0 0 0.0 1.1 3.8 338
09/11/2018 17:40 11.6 64 0.0 0 0.0 1.0 3.6 341
09/11/2018 17:50 11.6 63 0.0 0 0.0 1.0 3.7 318
09/11/2018 18:00 11.3 67 0.0 0 0.0 0.9 3.1 157
09/11/2018 18:10 11.1 68 0.0 0 0.0 0.7 2.5 95
09/11/2018 18:20 11.0 70 0.0 0 0.0 0.4 1.3 198
09/11/2018 18:30 11.0 71 0.0 0 0.0 0.4 1.4 230
09/11/2018 18:40 11.0 72 0.0 0 0.0 0.3 1.2 309
09/11/2018 18:50 10.8 75 0.0 0 0.0 0.1 0.3 107
09/11/2018 19:00 10.5 76 0.0 0 0.0 0.9 3.3 89
09/11/2018 19:10 10.6 74 0.0 0 0.0 1.1 4.1 110
09/11/2018 19:20 10.3 77 0.0 0 0.0 0.7 2.4 180
09/11/2018 19:30 10.4 77 0.0 0 0.0 0.2 0.7 197
09/11/2018 19:40 10.3 80 0.0 0 0.0 0.6 2.1 353
09/11/2018 19:50 10.2 79 0.0 0 0.0 0.4 1.4 90
09/11/2018 20:00 10.0 80 0.0 0 0.0 0.7 2.6 118
09/11/2018 20:10 9.8 82 0.0 0 0.0 0.7 2.5 141
09/11/2018 20:20 9.9 80 0.0 0 0.0 0.7 2.6 108
09/11/2018 20:30 10.0 79 0.0 0 0.0 1.3 4.8 103
09/11/2018 20:40 10.0 79 0.0 0 0.0 1.3 4.6 93
09/11/2018 20:50 9.9 78 0.0 0 0.0 1.2 4.2 111
09/11/2018 21:00 9.8 79 0.0 0 0.0 0.7 2.7 128
09/11/2018 21:10 9.7 80 0.0 0 0.0 0.8 3.0 77
09/11/2018 21:20 9.7 81 0.0 0 0.0 0.0 0.1 145
09/11/2018 21:30 9.6 82 0.0 0 0.0 0.2 0.7 110
09/11/2018 21:40 9.4 84 0.0 0 0.0 0.5 1.9 273
09/11/2018 21:50 9.2 86 0.0 0 0.0 0.3 0.9 172
09/11/2018 22:00 9.1 86 0.0 0 0.0 0.5 1.8 254
09/11/2018 22:10 9.1 87 0.0 0 0.0 0.4 1.3 133
09/11/2018 22:20 9.2 86 0.0 0 0.0 0.3 1.0 148
09/11/2018 22:30 9.1 87 0.0 0 0.0 1.1 3.8 165
09/11/2018 22:40 9.0 87 0.0 0 0.0 0.6 2.0 216
09/11/2018 22:50 8.9 87 0.0 0 0.0 0.9 3.1 319
09/11/2018 23:00 8.8 88 0.0 0 0.0 1.1 3.9 297
09/11/2018 23:10 8.9 86 0.0 0 0.0 1.4 4.9 345
09/11/2018 23:20 9.0 85 0.0 0 0.0 1.2 4.4 324
09/11/2018 23:30 9.0 86 0.0 0 0.0 0.8 2.9 38
09/11/2018 23:40 8.9 87 0.0 0 0.0 0.8 2.8 286
09/11/2018 23:50 8.9 86 0.0 0 0.0 0.9 3.3 313
Anterior Página 1 de 1 Siguiente

NOTA: Tipo de datos según el color:
   - Valores diarios o 10 minutos correctos
   - Valores diarios calculados a partir de un número de datos 10 minutos menor que 144 y mayor que 120, o de un número de datos semihorarios menor que 48 y mayor que 40 (caso de las estaciones de Riegos de Navarra y del MARM)
   - Valores diez minutos estimados


Contacto        Enlaces        Aviso legal